Time;durP1;ratioP1;P1;durP2;ratioP2;P2;SDS_P1;SDS_P2;PMS_P1;PMS_P2;Temp;Humidity;BMP_temperature;BMP_pressure;BME280_temperature;BME280_humidity;BME280_pressure;Samples;Min_cycle;Max_cycle;Signal;HPM_P1;HPM_P2
2021/10/03 04:32:13;;;;;;;2.53;2.43;;;15.30;99.90;;;;;;5294289;23;20508;-72
2021/10/03 04:34:38;;;;;;;3.47;3.17;;;15.40;99.90;;;;;;5000457;28;20438;-73
2021/10/03 04:37:04;;;;;;;3.13;2.93;;;15.50;99.90;;;;;;5013518;28;20206;-75
2021/10/03 04:39:31;;;;;;;4.50;3.67;;;15.50;99.90;;;;;;5010042;28;20194;-75
2021/10/03 04:41:58;;;;;;;2.93;2.60;;;15.50;99.90;;;;;;4996861;28;20580;-72
2021/10/03 04:44:23;;;;;;;3.07;2.77;;;15.50;99.90;;;;;;4988651;28;20442;-75
2021/10/03 04:46:49;;;;;;;3.70;3.40;;;15.50;99.90;;;;;;4988982;28;20490;-76
2021/10/03 04:49:15;;;;;;;3.27;2.97;;;15.60;99.90;;;;;;4991027;28;20562;-76
2021/10/03 04:51:40;;;;;;;3.43;3.20;;;15.60;99.90;;;;;;4992938;28;20542;-75
2021/10/03 04:54:06;;;;;;;3.23;3.03;;;15.70;99.90;;;;;;4993196;28;20183;-74
2021/10/03 04:56:31;;;;;;;3.33;3.00;;;15.70;99.90;;;;;;4986229;28;20215;-76
2021/10/03 04:58:57;;;;;;;3.30;3.00;;;15.70;99.90;;;;;;4993313;28;20182;-76
2021/10/03 05:01:22;;;;;;;3.60;2.93;;;15.80;99.90;;;;;;4990388;28;20645;-76
2021/10/03 05:03:48;;;;;;;5.97;3.50;;;15.90;99.90;;;;;;4993139;28;20546;-75
2021/10/03 05:06:13;;;;;;;3.13;2.83;;;15.90;99.90;;;;;;4989903;28;20198;-76
2021/10/03 05:08:39;;;;;;;5.27;2.50;;;16.10;99.90;;;;;;4992374;28;20246;-76
2021/10/03 05:11:05;;;;;;;3.30;3.00;;;16.10;99.90;;;;;;4990609;28;20215;-75
2021/10/03 05:13:31;;;;;;;3.67;3.07;;;16.10;99.90;;;;;;4992721;28;20175;-72
2021/10/03 05:15:57;;;;;;;4.00;3.00;;;16.10;99.90;;;;;;4991195;28;20831;-76
2021/10/03 05:18:23;;;;;;;2.87;2.57;;;16.20;99.90;;;;;;4990580;28;20474;-76
2021/10/03 05:20:49;;;;;;;3.80;3.23;;;16.20;99.90;;;;;;4992545;28;20821;-76
2021/10/03 05:23:15;;;;;;;2.53;2.33;;;16.20;99.90;;;;;;4990478;28;20180;-75
2021/10/03 05:25:40;;;;;;;2.97;2.77;;;16.30;99.90;;;;;;4990354;28;20198;-75
2021/10/03 05:28:06;;;;;;;2.67;2.57;;;16.40;99.90;;;;;;4990423;28;20584;-75
2021/10/03 05:30:32;;;;;;;3.23;3.03;;;16.50;99.90;;;;;;4992180;28;20179;-75
2021/10/03 05:32:57;;;;;;;2.53;2.30;;;16.50;99.90;;;;;;4985847;28;20204;-75
2021/10/03 05:35:23;;;;;;;2.50;2.30;;;16.50;99.90;;;;;;4987525;28;20191;-76
2021/10/03 05:37:49;;;;;;;2.63;2.43;;;16.60;99.90;;;;;;4987923;28;20215;-72
2021/10/03 05:40:14;;;;;;;3.10;2.80;;;16.60;99.90;;;;;;4990918;28;20562;-75
2021/10/03 05:42:40;;;;;;;2.90;2.70;;;16.60;99.90;;;;;;4991435;28;20692;-76
2021/10/03 05:45:06;;;;;;;2.97;2.77;;;16.70;99.90;;;;;;4990128;28;20191;-75
2021/10/03 05:47:32;;;;;;;4.10;3.03;;;16.60;99.90;;;;;;4992238;28;20190;-75
2021/10/03 05:49:57;;;;;;;3.13;2.93;;;16.70;99.90;;;;;;4988090;28;20446;-72
2021/10/03 05:52:24;;;;;;;3.13;2.67;;;16.70;99.90;;;;;;4990555;28;20218;-73
2021/10/03 05:54:49;;;;;;;2.70;2.50;;;16.70;99.90;;;;;;4981339;28;20680;-75
2021/10/03 05:57:15;;;;;;;2.33;2.23;;;16.80;99.90;;;;;;4988582;28;20509;-75
2021/10/03 05:59:41;;;;;;;3.40;3.10;;;16.90;99.90;;;;;;4985724;28;20176;-74
2021/10/03 06:02:06;;;;;;;5.93;3.10;;;16.90;99.90;;;;;;4987248;28;20585;-74
2021/10/03 06:04:32;;;;;;;3.10;2.90;;;17.00;99.90;;;;;;4990125;28;20649;-74
2021/10/03 06:06:57;;;;;;;3.17;2.87;;;17.00;99.90;;;;;;4991900;28;20194;-74
2021/10/03 06:09:23;;;;;;;3.87;2.40;;;17.10;99.90;;;;;;4995344;28;20681;-75
2021/10/03 06:11:49;;;;;;;4.07;3.10;;;17.10;99.90;;;;;;4989717;28;20206;-74
2021/10/03 06:14:14;;;;;;;3.47;2.97;;;17.10;99.90;;;;;;4996374;28;20171;-74
2021/10/03 06:16:42;;;;;;;3.80;2.73;;;17.20;99.90;;;;;;4994256;28;20214;-75
2021/10/03 06:19:11;;;;;;;3.13;2.80;;;17.20;99.90;;;;;;4996147;28;20241;-75
2021/10/03 06:21:39;;;;;;;2.67;2.47;;;17.30;99.90;;;;;;4993821;28;20446;-74
2021/10/03 06:24:05;;;;;;;3.20;3.00;;;17.40;99.90;;;;;;4994695;28;20437;-75
2021/10/03 06:26:31;;;;;;;1.93;1.83;;;17.50;99.90;;;;;;4991567;28;20446;-75
2021/10/03 06:28:56;;;;;;;3.73;2.57;;;17.70;99.90;;;;;;4996008;28;20421;-75
2021/10/03 06:31:22;;;;;;;2.80;2.60;;;17.90;99.90;;;;;;4995196;28;20207;-76
2021/10/03 06:33:47;;;;;;;2.20;2.10;;;18.10;99.90;;;;;;4988299;28;20190;-75
2021/10/03 06:36:13;;;;;;;3.93;3.27;;;18.20;99.90;;;;;;4993560;28;20262;-75
2021/10/03 06:38:39;;;;;;;2.60;2.43;;;18.30;99.90;;;;;;4993606;28;20199;-75
2021/10/03 06:41:04;;;;;;;8.17;2.47;;;18.40;99.90;;;;;;4993602;28;20710;-75
2021/10/03 06:43:35;;;;;;;2.50;1.93;;;18.60;99.90;;;;;;4991311;28;20193;-76
2021/10/03 06:46:02;;;;;;;4.40;2.33;;;18.70;99.90;;;;;;4995803;28;20179;-76
2021/10/03 06:48:28;;;;;;;2.87;2.67;;;18.80;99.90;;;;;;4993744;28;20426;-76
2021/10/03 06:50:54;;;;;;;4.70;3.00;;;18.80;99.90;;;;;;4995952;28;20536;-76
2021/10/03 06:53:19;;;;;;;3.10;2.70;;;18.90;99.90;;;;;;4993378;28;20977;-75
2021/10/03 06:55:45;;;;;;;2.40;2.30;;;18.90;99.90;;;;;;4988915;28;20725;-74
2021/10/03 06:58:11;;;;;;;2.03;1.93;;;19.10;99.90;;;;;;4994607;28;20294;-75
2021/10/03 07:00:36;;;;;;;2.30;1.80;;;19.30;99.90;;;;;;4985385;28;20184;-71
2021/10/03 07:03:02;;;;;;;3.20;1.97;;;19.50;99.90;;;;;;4988784;28;20176;-71
2021/10/03 07:05:27;;;;;;;2.13;2.03;;;19.60;99.90;;;;;;4990761;28;20653;-72
2021/10/03 07:07:53;;;;;;;3.23;2.07;;;19.70;99.90;;;;;;4995031;28;20187;-72
2021/10/03 07:10:18;;;;;;;2.80;2.60;;;19.80;99.90;;;;;;4985074;28;20278;-72
2021/10/03 07:12:44;;;;;;;1.90;1.80;;;19.80;99.90;;;;;;4987924;28;20237;-71
2021/10/03 07:15:09;;;;;;;2.90;2.13;;;19.70;99.90;;;;;;4992912;28;20188;-72
2021/10/03 07:17:35;;;;;;;3.00;2.60;;;19.70;99.90;;;;;;4992404;28;20215;-72
2021/10/03 07:20:01;;;;;;;2.40;2.13;;;19.70;99.90;;;;;;4993861;28;20270;-72
2021/10/03 07:22:26;;;;;;;2.30;2.20;;;19.80;99.90;;;;;;4992021;28;20195;-71
2021/10/03 07:24:52;;;;;;;6.00;3.00;;;19.80;99.90;;;;;;4994479;28;20179;-72
2021/10/03 07:27:17;;;;;;;2.73;2.53;;;19.70;99.90;;;;;;4990475;28;20536;-72
2021/10/03 07:29:43;;;;;;;2.40;1.80;;;19.70;99.90;;;;;;4994307;28;20677;-71
2021/10/03 07:32:09;;;;;;;2.20;2.10;;;19.80;99.90;;;;;;4992090;28;20230;-70
2021/10/03 07:34:35;;;;;;;2.07;1.93;;;19.80;99.90;;;;;;4987756;28;20183;-71
2021/10/03 07:37:00;;;;;;;2.27;2.10;;;19.80;99.90;;;;;;4992584;28;20471;-72
2021/10/03 07:39:26;;;;;;;2.40;2.20;;;19.90;99.90;;;;;;4991904;28;20447;-71
2021/10/03 07:41:52;;;;;;;1.83;1.73;;;20.00;99.90;;;;;;4982511;28;20216;-71
2021/10/03 07:44:18;;;;;;;5.90;2.40;;;20.00;99.90;;;;;;4990888;28;20250;-72
2021/10/03 07:46:44;;;;;;;5.80;2.20;;;20.00;99.90;;;;;;4994294;28;20240;-71
2021/10/03 07:49:11;;;;;;;4.13;2.50;;;20.00;99.90;;;;;;4989993;28;21017;-72
2021/10/03 07:51:37;;;;;;;2.13;2.00;;;20.00;99.90;;;;;;4993920;28;20195;-72
2021/10/03 07:54:02;;;;;;;2.70;2.20;;;20.00;99.90;;;;;;4992195;28;21115;-72
2021/10/03 07:56:28;;;;;;;2.93;2.13;;;20.10;99.90;;;;;;4992248;28;20206;-71
2021/10/03 07:58:53;;;;;;;4.47;2.20;;;20.10;99.90;;;;;;4992073;28;20568;-72
2021/10/03 08:01:21;;;;;;;1.87;1.77;;;20.10;99.90;;;;;;4991621;28;20230;-69
2021/10/03 08:03:46;;;;;;;2.43;2.23;;;20.10;99.90;;;;;;4992864;28;20790;-72
2021/10/03 08:06:12;;;;;;;3.57;3.00;;;20.10;99.90;;;;;;4993349;28;20951;-72
2021/10/03 08:08:38;;;;;;;2.20;2.10;;;20.10;99.90;;;;;;4993436;28;20207;-72
2021/10/03 08:11:03;;;;;;;2.17;2.00;;;20.00;99.90;;;;;;4987391;28;20211;-73
2021/10/03 08:13:29;;;;;;;3.27;2.27;;;20.10;99.90;;;;;;4993400;28;20262;-72
2021/10/03 08:15:55;;;;;;;2.33;2.13;;;20.00;99.90;;;;;;4992029;28;20198;-72
2021/10/03 08:18:20;;;;;;;2.40;2.30;;;20.00;99.90;;;;;;4993644;28;20671;-72
2021/10/03 08:20:47;;;;;;;2.80;1.97;;;20.00;99.90;;;;;;4991529;28;20183;-73
2021/10/03 08:23:13;;;;;;;2.93;2.73;;;20.00;99.90;;;;;;4991230;28;20182;-72
2021/10/03 08:25:39;;;;;;;3.10;2.23;;;20.10;99.90;;;;;;4991300;28;20927;-73
2021/10/03 08:28:04;;;;;;;1.90;1.80;;;20.10;99.90;;;;;;4992457;28;20206;-74
2021/10/03 08:30:30;;;;;;;1.53;1.43;;;20.20;99.90;;;;;;4982063;28;20259;-76
2021/10/03 08:32:56;;;;;;;2.50;2.30;;;20.20;99.90;;;;;;4982958;28;20196;-73
2021/10/03 08:35:22;;;;;;;5.00;2.83;;;20.30;99.90;;;;;;4984663;28;20431;-73
2021/10/03 08:37:47;;;;;;;3.37;3.00;;;20.30;99.90;;;;;;4990625;28;20203;-71
2021/10/03 08:40:13;;;;;;;3.47;2.90;;;20.20;99.90;;;;;;4993058;28;20201;-71
2021/10/03 08:42:40;;;;;;;2.57;2.37;;;20.20;99.90;;;;;;4987503;28;20222;-75
2021/10/03 08:45:06;;;;;;;2.63;2.43;;;20.10;99.90;;;;;;4992349;28;20407;-74
2021/10/03 08:47:32;;;;;;;2.17;2.07;;;20.10;99.90;;;;;;4990833;28;20431;-74
2021/10/03 08:50:00;;;;;;;2.47;2.27;;;20.10;99.90;;;;;;4993220;28;20436;-73
2021/10/03 08:52:26;;;;;;;2.03;1.80;;;20.10;99.90;;;;;;4991384;28;20191;-74
2021/10/03 08:54:53;;;;;;;4.00;2.00;;;20.20;99.90;;;;;;4988385;28;20446;-75
2021/10/03 08:57:18;;;;;;;2.77;2.57;;;20.20;99.90;;;;;;4984910;28;20462;-73
2021/10/03 09:00:05;;;;;;;3.40;2.17;;;20.30;99.90;;;;;;4990852;28;21123;-72
2021/10/03 09:02:51;;;;;;;2.30;2.10;;;20.30;99.90;;;;;;4992232;28;20199;-73
2021/10/03 09:05:16;;;;;;;2.27;2.17;;;20.30;99.90;;;;;;4988819;28;20573;-72
2021/10/03 09:08:04;;;;;;;2.97;2.13;;;20.40;99.90;;;;;;4992478;28;20502;-72
2021/10/03 09:10:55;;;;;;;2.30;2.20;;;20.40;99.90;;;;;;4984919;28;20188;-72
2021/10/03 09:13:32;;;;;;;2.10;2.00;;;20.30;99.90;;;;;;4965095;28;20514;-73
2021/10/03 09:16:17;;;;;;;2.27;2.13;;;20.20;99.90;;;;;;4980316;28;20468;-73
2021/10/03 09:18:46;;;;;;;6.03;2.03;;;20.20;99.90;;;;;;4986549;28;20433;-73
2021/10/03 09:21:39;;;;;;;2.57;2.37;;;20.10;99.90;;;;;;4987606;28;20847;-74
2021/10/03 09:24:09;;;;;;;2.00;1.90;;;20.10;99.90;;;;;;4986774;28;20422;-75
2021/10/03 09:26:37;;;;;;;2.53;2.00;;;20.10;99.90;;;;;;4992215;28;20407;-75
2021/10/03 09:29:20;;;;;;;1.70;1.60;;;20.10;99.90;;;;;;4991162;28;20474;-76
2021/10/03 09:32:14;;;;;;;2.40;2.20;;;20.20;99.90;;;;;;4990862;28;20482;-76
2021/10/03 09:34:46;;;;;;;1.90;1.77;;;20.20;99.90;;;;;;4992170;28;20419;-75
2021/10/03 09:37:16;;;;;;;3.63;2.20;;;20.10;99.90;;;;;;4992071;28;20916;-76
2021/10/03 09:39:41;;;;;;;2.30;2.10;;;20.10;99.90;;;;;;4992183;28;20510;-76
2021/10/03 09:42:15;;;;;;;2.27;2.17;;;20.20;99.90;;;;;;4991696;28;20998;-77
2021/10/03 09:45:03;;;;;;;2.53;2.23;;;20.20;99.90;;;;;;4992107;28;20190;-75
2021/10/03 09:47:28;;;;;;;2.80;2.30;;;20.30;99.90;;;;;;4991985;28;20469;-76
2021/10/03 09:49:54;;;;;;;2.40;2.23;;;20.30;99.90;;;;;;4992174;28;20904;-76
2021/10/03 09:52:20;;;;;;;2.03;1.93;;;20.40;99.90;;;;;;4991795;28;20210;-76
2021/10/03 09:54:48;;;;;;;2.67;2.57;;;20.40;99.90;;;;;;4991944;28;20780;-76
2021/10/03 09:57:18;;;;;;;3.20;2.97;;;20.40;99.90;;;;;;4992031;28;20206;-75
2021/10/03 09:59:45;;;;;;;6.20;3.13;;;20.40;99.90;;;;;;4991906;28;20927;-75
2021/10/03 10:02:11;;;;;;;2.33;2.23;;;20.40;99.90;;;;;;4991802;28;20439;-74
2021/10/03 10:04:38;;;;;;;2.83;2.63;;;20.50;99.90;;;;;;4991874;28;20418;-75
2021/10/03 10:07:04;;;;;;;2.80;2.60;;;20.40;99.90;;;;;;4991714;28;20425;-74
2021/10/03 10:09:31;;;;;;;2.60;2.40;;;20.40;99.90;;;;;;4991766;28;20418;-75
2021/10/03 10:12:16;;;;;;;2.63;2.43;;;20.40;99.90;;;;;;4991665;28;20445;-74
2021/10/03 10:14:46;;;;;;;4.23;2.60;;;20.40;99.90;;;;;;4991815;28;20441;-77
2021/10/03 10:17:34;;;;;;;4.27;3.13;;;20.40;99.90;;;;;;4991697;28;20966;-75
2021/10/03 10:20:02;;;;;;;2.17;2.07;;;20.40;99.90;;;;;;4991754;28;20835;-75
2021/10/03 10:22:30;;;;;;;2.80;2.03;;;20.60;99.90;;;;;;4990971;28;20446;-77
2021/10/03 10:25:00;;;;;;;3.30;2.90;;;20.70;99.90;;;;;;4991915;28;20562;-75
2021/10/03 10:27:28;;;;;;;3.63;3.20;;;20.80;99.90;;;;;;4991525;28;20927;-75
2021/10/03 10:29:58;;;;;;;2.73;2.53;;;21.00;99.90;;;;;;4987310;28;20431;-76
2021/10/03 10:32:30;;;;;;;3.30;3.10;;;21.20;99.90;;;;;;4990937;28;20454;-76
2021/10/03 10:35:08;;;;;;;4.73;4.20;;;21.30;99.90;;;;;;4991726;28;20406;-75
2021/10/03 10:37:53;;;;;;;2.83;2.63;;;21.40;99.90;;;;;;4991189;28;20516;-76
2021/10/03 10:40:21;;;;;;;3.37;3.07;;;21.40;99.90;;;;;;4991814;28;20446;-76
2021/10/03 10:42:50;;;;;;;2.93;2.73;;;21.50;99.90;;;;;;4991149;28;20442;-76
2021/10/03 10:45:44;;;;;;;2.83;2.63;;;21.50;99.90;;;;;;4991735;28;20406;-76
2021/10/03 10:48:09;;;;;;;3.57;3.27;;;21.60;99.90;;;;;;4987499;28;20466;-76
2021/10/03 10:51:00;;;;;;;3.77;3.40;;;21.70;99.90;;;;;;4991237;28;20438;-77
2021/10/03 10:53:31;;;;;;;3.87;3.00;;;21.90;99.90;;;;;;4990878;28;20263;-75
2021/10/03 10:56:05;;;;;;;3.33;3.03;;;21.90;99.90;;;;;;4995223;28;20410;-76
2021/10/03 10:58:33;;;;;;;4.27;3.57;;;21.90;99.90;;;;;;4995605;28;20454;-76
2021/10/03 11:01:00;;;;;;;3.70;2.70;;;21.90;99.90;;;;;;4993870;28;20460;-76
2021/10/03 11:04:09;;;;;;;2.53;2.30;;;21.90;99.90;;;;;;4994626;28;20429;-76
2021/10/03 11:06:35;;;;;;;3.57;3.23;;;22.00;99.90;;;;;;4975196;28;20509;-76
2021/10/03 11:09:04;;;;;;;10.87;3.57;;;22.00;99.90;;;;;;4995080;28;20498;-76
2021/10/03 11:11:32;;;;;;;3.40;3.10;;;22.00;99.90;;;;;;4994992;28;20574;-77
2021/10/03 11:14:17;;;;;;;4.50;2.63;;;21.90;99.90;;;;;;4994899;28;20418;-75
2021/10/03 11:16:50;;;;;;;2.73;2.53;;;21.80;99.90;;;;;;4994563;28;20511;-76
2021/10/03 11:19:47;;;;;;;2.90;2.53;;;21.70;99.90;;;;;;4994854;28;20415;-75
2021/10/03 11:22:22;;;;;;;2.70;2.37;;;21.60;99.90;;;;;;4971562;28;20442;-76
2021/10/03 11:24:54;;;;;;;10.03;9.13;;;21.50;99.90;;;;;;4993493;28;20429;-76
2021/10/03 11:27:21;;;;;;;10.13;8.53;;;21.40;99.90;;;;;;4994786;28;20421;-75
2021/10/03 11:29:50;;;;;;;11.77;9.90;;;21.40;99.90;;;;;;4995110;28;20915;-76
2021/10/03 11:32:27;;;;;;;8.00;7.13;;;21.30;99.90;;;;;;4994300;28;20794;-75
2021/10/03 11:35:12;;;;;;;8.10;6.70;;;21.30;99.90;;;;;;4994890;28;20414;-75
2021/10/03 11:37:40;;;;;;;5.47;4.97;;;21.30;99.90;;;;;;4994347;28;20473;-75
2021/10/03 11:40:13;;;;;;;11.50;5.93;;;21.40;99.90;;;;;;4993667;28;20942;-75
2021/10/03 11:42:49;;;;;;;5.23;4.73;;;21.40;99.90;;;;;;4994218;28;20947;-75
2021/10/03 11:45:33;;;;;;;6.57;5.50;;;21.40;99.90;;;;;;4994539;28;20406;-75
2021/10/03 11:48:07;;;;;;;8.87;7.60;;;21.50;99.90;;;;;;4994746;28;20421;-74
2021/10/03 11:50:35;;;;;;;5.53;4.50;;;21.50;99.90;;;;;;4994411;28;20977;-75
2021/10/03 11:53:20;;;;;;;6.60;4.80;;;21.40;99.90;;;;;;4994634;28;20931;-75
2021/10/03 11:55:49;;;;;;;4.43;3.97;;;21.40;99.90;;;;;;4994392;28;20414;-75
2021/10/03 11:58:17;;;;;;;3.30;3.10;;;21.30;99.90;;;;;;4993090;28;20552;-75
2021/10/03 12:00:54;;;;;;;7.43;3.40;;;21.40;99.90;;;;;;4994117;28;20425;-75
2021/10/03 12:03:21;;;;;;;3.70;3.40;;;21.30;99.90;;;;;;4994169;28;20877;-75
2021/10/03 12:05:47;;;;;;;4.40;4.00;;;21.30;99.90;;;;;;4992997;28;20411;-75
2021/10/03 12:08:18;;;;;;;5.80;4.00;;;21.30;99.90;;;;;;4994312;28;20426;-75
2021/10/03 12:10:53;;;;;;;4.30;3.60;;;21.30;99.90;;;;;;4992694;28;20942;-74
2021/10/03 12:13:30;;;;;;;5.57;3.50;;;21.30;99.90;;;;;;4993935;28;20409;-75
2021/10/03 12:16:02;;;;;;;3.93;3.50;;;21.40;99.90;;;;;;4994199;28;20421;-75
2021/10/03 12:18:30;;;;;;;3.33;3.10;;;21.50;99.90;;;;;;4993751;28;20461;-75
2021/10/03 12:21:08;;;;;;;3.07;2.87;;;21.60;99.90;;;;;;4993948;28;20439;-75
2021/10/03 12:24:01;;;;;;;5.93;3.73;;;21.60;99.90;;;;;;4993740;28;20893;-75
2021/10/03 12:26:32;;;;;;;4.70;4.30;;;21.60;99.90;;;;;;4993829;28;20407;-75
2021/10/03 12:29:09;;;;;;;4.07;3.77;;;21.70;99.90;;;;;;4993920;28;20403;-75
2021/10/03 12:31:51;;;;;;;3.43;3.20;;;21.80;99.90;;;;;;4993649;28;20446;-76
2021/10/03 12:34:16;;;;;;;4.43;3.23;;;21.90;99.90;;;;;;4993937;28;20443;-75
2021/10/03 12:36:54;;;;;;;3.93;3.50;;;21.90;99.90;;;;;;4993695;28;20958;-75
2021/10/03 12:39:34;;;;;;;3.70;3.00;;;22.00;99.90;;;;;;4992512;28;20175;-76
2021/10/03 12:42:08;;;;;;;3.80;3.50;;;22.00;99.90;;;;;;4993636;28;20993;-75
2021/10/03 12:44:34;;;;;;;4.60;3.50;;;22.00;99.90;;;;;;4993592;28;20461;-75
2021/10/03 12:47:02;;;;;;;3.50;3.20;;;22.00;99.90;;;;;;4993742;28;20410;-75
2021/10/03 12:49:27;;;;;;;3.47;2.80;;;22.10;99.90;;;;;;4993549;28;20414;-75
2021/10/03 12:51:53;;;;;;;2.80;2.60;;;22.10;99.90;;;;;;4993299;28;20957;-76
2021/10/03 12:54:18;;;;;;;3.20;2.60;;;22.20;99.90;;;;;;4993552;28;20179;-76
2021/10/03 12:56:44;;;;;;;3.20;2.77;;;22.30;99.90;;;;;;4993317;28;20203;-75
2021/10/03 12:59:09;;;;;;;2.73;2.33;;;22.50;99.90;;;;;;4993395;28;20183;-76
2021/10/03 13:01:35;;;;;;;2.80;2.60;;;22.50;99.90;;;;;;4993206;28;20253;-75
2021/10/03 13:04:00;;;;;;;5.80;3.37;;;22.60;99.90;;;;;;4993171;28;20216;-74
2021/10/03 13:06:26;;;;;;;2.73;2.53;;;22.50;99.90;;;;;;4993070;28;20179;-75
2021/10/03 13:08:54;;;;;;;3.00;2.80;;;22.50;99.90;;;;;;4993120;28;20215;-75
2021/10/03 13:11:21;;;;;;;3.03;2.73;;;22.40;99.90;;;;;;4993190;28;20203;-75
2021/10/03 13:13:47;;;;;;;3.20;2.90;;;22.40;99.90;;;;;;4992790;28;20423;-75
2021/10/03 13:16:13;;;;;;;3.13;2.93;;;22.30;99.90;;;;;;4992937;28;20418;-75
2021/10/03 13:18:39;;;;;;;3.20;2.90;;;22.30;99.90;;;;;;4992447;28;20497;-75
2021/10/03 13:21:05;;;;;;;2.40;2.30;;;22.30;99.90;;;;;;4992764;28;20926;-75
2021/10/03 13:23:31;;;;;;;2.83;2.63;;;22.30;99.90;;;;;;4992706;28;20183;-75
2021/10/03 13:25:57;;;;;;;3.07;2.77;;;22.30;99.90;;;;;;4992830;28;20167;-75
2021/10/03 13:28:23;;;;;;;4.63;4.23;;;22.10;99.90;;;;;;4992916;28;20422;-75
2021/10/03 13:30:49;;;;;;;3.40;3.20;;;22.00;99.90;;;;;;4992596;28;20441;-75
2021/10/03 13:33:15;;;;;;;3.90;3.60;;;21.90;99.90;;;;;;4991469;28;20179;-76
2021/10/03 13:35:42;;;;;;;4.60;4.20;;;21.80;99.90;;;;;;4992550;28;20655;-75
2021/10/03 13:38:09;;;;;;;4.17;3.87;;;21.70;99.90;;;;;;4992543;28;20203;-75
2021/10/03 13:40:38;;;;;;;3.80;3.50;;;21.80;99.90;;;;;;4991959;28;20418;-75
2021/10/03 13:43:05;;;;;;;3.80;3.40;;;21.80;99.90;;;;;;4981371;28;20434;-76
2021/10/03 13:45:32;;;;;;;5.20;3.70;;;21.80;99.90;;;;;;4992269;28;20982;-75
2021/10/03 13:47:57;;;;;;;5.70;3.47;;;21.80;99.90;;;;;;4992514;28;20449;-76
2021/10/03 13:50:23;;;;;;;5.80;4.00;;;21.70;99.90;;;;;;4992312;28;20771;-75
2021/10/03 13:52:49;;;;;;;3.90;3.50;;;21.70;99.90;;;;;;4992070;28;20289;-76
2021/10/03 13:55:15;;;;;;;5.40;3.77;;;21.70;99.90;;;;;;4992275;28;20476;-76
2021/10/03 13:57:40;;;;;;;6.37;3.80;;;21.70;99.90;;;;;;4992057;28;20203;-78
2021/10/03 14:00:09;;;;;;;4.43;4.03;;;21.60;99.90;;;;;;4992278;28;20199;-75
2021/10/03 14:02:40;;;;;;;6.63;5.40;;;21.60;99.90;;;;;;4991672;28;20195;-73
2021/10/03 14:05:07;;;;;;;7.70;4.13;;;21.60;99.90;;;;;;4992132;28;20421;-77
2021/10/03 14:07:32;;;;;;;3.73;3.40;;;21.50;99.90;;;;;;4991850;28;20793;-77
2021/10/03 14:09:58;;;;;;;5.60;3.50;;;21.50;99.90;;;;;;4990894;28;20417;-75
2021/10/03 14:12:24;;;;;;;3.80;3.50;;;21.50;99.90;;;;;;4991318;28;20289;-76
2021/10/03 14:14:51;;;;;;;5.00;4.50;;;21.40;99.90;;;;;;4991848;28;20180;-75
2021/10/03 14:17:17;;;;;;;4.77;3.50;;;21.40;99.90;;;;;;4992097;28;20549;-75
2021/10/03 14:19:42;;;;;;;5.30;3.30;;;21.30;99.90;;;;;;4991705;28;20506;-74
2021/10/03 14:22:08;;;;;;;5.57;2.93;;;21.30;99.90;;;;;;4991390;28;20225;-74
2021/10/03 14:24:33;;;;;;;5.70;3.20;;;21.30;99.90;;;;;;4991855;28;20222;-75
2021/10/03 14:26:59;;;;;;;4.03;3.60;;;21.20;99.90;;;;;;4991642;28;20195;-75
2021/10/03 14:29:24;;;;;;;3.20;3.00;;;21.20;99.90;;;;;;4993255;28;20528;-75
2021/10/03 14:31:50;;;;;;;5.67;3.30;;;21.10;99.90;;;;;;4995320;28;20238;-75
2021/10/03 14:34:16;;;;;;;5.30;3.57;;;20.90;99.90;;;;;;4995601;28;20176;-74
2021/10/03 14:36:41;;;;;;;4.60;4.20;;;20.90;99.90;;;;;;4995270;28;20253;-76
2021/10/03 14:39:07;;;;;;;5.50;3.83;;;20.80;99.90;;;;;;4995725;28;20171;-76
2021/10/03 14:41:32;;;;;;;4.23;3.50;;;20.70;99.90;;;;;;4995158;28;20710;-77
2021/10/03 14:43:58;;;;;;;4.33;3.90;;;20.60;99.90;;;;;;4994318;28;20591;-77
2021/10/03 14:46:23;;;;;;;5.10;4.10;;;20.60;99.90;;;;;;4994384;28;20270;-76
2021/10/03 14:48:49;;;;;;;6.80;4.83;;;20.50;99.90;;;;;;4994110;28;20190;-76
2021/10/03 14:51:15;;;;;;;7.73;5.47;;;20.50;99.90;;;;;;4994429;28;20231;-76
2021/10/03 14:53:41;;;;;;;6.40;4.97;;;20.30;99.90;;;;;;4976219;28;20261;-76
2021/10/03 14:56:07;;;;;;;4.53;4.10;;;20.30;99.90;;;;;;4975712;28;20425;-75
2021/10/03 14:58:33;;;;;;;8.17;4.00;;;20.20;99.90;;;;;;4975550;28;20987;-77
2021/10/03 15:00:58;;;;;;;5.03;4.00;;;20.10;99.90;;;;;;4975821;28;20196;-76
2021/10/03 15:03:24;;;;;;;5.47;4.20;;;20.00;99.90;;;;;;4974212;28;20186;-77
2021/10/03 15:05:49;;;;;;;3.73;3.43;;;20.00;99.90;;;;;;4974412;28;20176;-77
2021/10/03 15:08:15;;;;;;;7.93;3.47;;;19.90;99.90;;;;;;4975589;28;20754;-76
2021/10/03 15:10:40;;;;;;;10.77;3.80;;;19.90;99.90;;;;;;4975204;28;20262;-76
2021/10/03 15:13:06;;;;;;;4.80;4.40;;;19.80;99.90;;;;;;4975279;28;20296;-77
2021/10/03 15:15:32;;;;;;;4.73;4.33;;;19.80;99.90;;;;;;4975824;28;20677;-76
2021/10/03 15:17:57;;;;;;;4.30;3.90;;;19.80;99.90;;;;;;4975937;28;20254;-76
2021/10/03 15:20:23;;;;;;;7.27;5.30;;;19.80;99.90;;;;;;4975513;28;20175;-77
2021/10/03 15:22:49;;;;;;;6.80;5.80;;;19.80;99.90;;;;;;4974162;28;20207;-76
2021/10/03 15:25:18;;;;;;;5.30;3.83;;;19.80;99.90;;;;;;4975381;28;20165;-76
2021/10/03 15:27:43;;;;;;;5.93;5.40;;;19.90;99.90;;;;;;4975159;28;20419;-78
2021/10/03 15:30:10;;;;;;;5.00;3.90;;;19.90;99.90;;;;;;4975269;28;20787;-77
2021/10/03 15:32:36;;;;;;;7.00;4.53;;;19.80;99.90;;;;;;4974840;28;20725;-77
2021/10/03 15:35:03;;;;;;;13.93;5.10;;;19.80;99.90;;;;;;4974173;28;20528;-76
2021/10/03 15:37:28;;;;;;;5.43;4.87;;;19.70;99.90;;;;;;4974926;28;20208;-76
2021/10/03 15:39:54;;;;;;;9.70;5.10;;;19.70;99.90;;;;;;4974731;28;20503;-77
2021/10/03 15:42:19;;;;;;;8.07;5.20;;;19.60;99.90;;;;;;4974524;28;20203;-76
2021/10/03 15:44:45;;;;;;;12.23;5.00;;;19.50;99.90;;;;;;4974981;28;20671;-77
2021/10/03 15:47:11;;;;;;;5.77;5.20;;;19.50;99.90;;;;;;4975074;28;20675;-76
2021/10/03 15:49:37;;;;;;;4.90;4.50;;;19.40;99.90;;;;;;4974751;28;20183;-76
2021/10/03 15:52:03;;;;;;;10.57;5.87;;;19.40;99.90;;;;;;4974806;28;20693;-78
2021/10/03 15:54:28;;;;;;;6.57;5.30;;;19.40;99.90;;;;;;4974304;28;20466;-76
2021/10/03 15:56:56;;;;;;;4.83;4.43;;;19.30;99.90;;;;;;4974762;28;20211;-76
2021/10/03 15:59:22;;;;;;;8.53;6.23;;;19.30;99.90;;;;;;4974681;28;20173;-76
2021/10/03 16:01:47;;;;;;;10.20;7.73;;;19.30;99.90;;;;;;4974437;28;20497;-76
2021/10/03 16:04:13;;;;;;;10.80;8.27;;;19.20;99.90;;;;;;4974493;28;20176;-76
2021/10/03 16:06:38;;;;;;;9.73;7.80;;;19.00;99.90;;;;;;4974635;28;20187;-75
2021/10/03 16:09:04;;;;;;;8.60;5.60;;;18.80;99.90;;;;;;4974572;28;20191;-77
2021/10/03 16:11:29;;;;;;;7.83;5.30;;;18.70;99.90;;;;;;4974098;28;20591;-76
2021/10/03 16:13:55;;;;;;;4.67;4.27;;;18.40;99.90;;;;;;4974376;28;20650;-76
2021/10/03 16:16:20;;;;;;;5.60;4.83;;;18.30;99.90;;;;;;4974478;28;20179;-77
2021/10/03 16:18:46;;;;;;;6.67;6.00;;;18.20;99.90;;;;;;4974345;28;20211;-77
2021/10/03 16:21:12;;;;;;;12.33;8.10;;;18.10;99.90;;;;;;4974387;28;20202;-75
2021/10/03 16:23:37;;;;;;;8.63;5.60;;;18.00;99.90;;;;;;4974092;28;20551;-77
2021/10/03 16:26:03;;;;;;;13.00;6.40;;;17.90;99.90;;;;;;4974216;28;20180;-78
2021/10/03 16:28:31;;;;;;;6.03;5.37;;;17.90;99.90;;;;;;4973882;28;20231;-76
2021/10/03 16:30:57;;;;;;;7.53;5.60;;;17.90;99.90;;;;;;4974068;28;20481;-77
2021/10/03 16:33:23;;;;;;;7.73;5.50;;;17.90;99.90;;;;;;4973855;28;20462;-76
2021/10/03 16:35:48;;;;;;;5.20;4.80;;;17.80;99.90;;;;;;4973948;28;20423;-73
2021/10/03 16:38:15;;;;;;;6.63;5.50;;;17.70;99.90;;;;;;4974101;28;20204;-77
2021/10/03 16:40:41;;;;;;;8.43;5.30;;;17.70;99.90;;;;;;4973443;28;20172;-77
2021/10/03 16:43:07;;;;;;;10.33;5.80;;;17.70;99.90;;;;;;4973798;28;20420;-75
2021/10/03 16:45:33;;;;;;;5.80;5.30;;;17.60;99.90;;;;;;4973888;28;20830;-76
2021/10/03 16:48:01;;;;;;;5.93;5.40;;;17.60;99.90;;;;;;4973640;28;20187;-77
2021/10/03 16:50:27;;;;;;;9.03;5.93;;;17.50;99.90;;;;;;4973180;28;20427;-75
2021/10/03 16:52:53;;;;;;;6.97;5.67;;;17.50;99.90;;;;;;4984120;28;20438;-75
2021/10/03 16:55:19;;;;;;;7.47;6.37;;;17.50;99.90;;;;;;4993311;28;20476;-75
2021/10/03 16:57:46;;;;;;;6.07;5.47;;;17.40;99.90;;;;;;4993067;28;20513;-75
2021/10/03 17:00:14;;;;;;;9.13;6.73;;;17.40;99.90;;;;;;4993383;28;20783;-75
2021/10/03 17:02:41;;;;;;;12.90;10.43;;;17.40;99.90;;;;;;4993438;28;20435;-76
2021/10/03 17:05:06;;;;;;;10.10;7.47;;;17.30;99.90;;;;;;4993702;28;20561;-75
2021/10/03 17:07:32;;;;;;;10.43;7.27;;;17.30;99.90;;;;;;4993399;28;20909;-75
2021/10/03 17:09:57;;;;;;;10.63;6.70;;;17.20;99.90;;;;;;4994085;28;20183;-77
2021/10/03 17:12:23;;;;;;;8.20;7.33;;;17.20;99.90;;;;;;4994141;28;20214;-75
2021/10/03 17:14:48;;;;;;;10.80;6.63;;;17.20;99.90;;;;;;4996555;28;20179;-75
2021/10/03 17:17:14;;;;;;;9.33;7.10;;;17.10;99.90;;;;;;4994015;28;20210;-76
2021/10/03 17:19:39;;;;;;;7.63;6.83;;;17.10;99.90;;;;;;4994250;28;20175;-76
2021/10/03 17:22:07;;;;;;;8.13;6.67;;;17.10;99.90;;;;;;4993507;28;20245;-75